sensor_id;sensor_type;location;lat;lon;timestamp;pressure;altitude;pressure_sealevel;temperature;humidity
59315;BME280;46521;50.160;20.802;2022-12-18T09:36:39;101742.69;;;-2.82;78.40
59315;BME280;46521;50.160;20.802;2022-12-18T09:56:53;101754.88;;;-2.88;77.65
59315;BME280;46521;50.160;20.802;2022-12-18T10:07:12;101761.89;;;-2.94;77.19
59315;BME280;46521;50.160;20.802;2022-12-18T10:27:35;101753.98;;;-2.86;76.65
59315;BME280;46521;50.160;20.802;2022-12-18T10:48:22;101765.54;;;-2.60;76.66
59315;BME280;46521;50.160;20.802;2022-12-18T10:58:30;101765.22;;;-2.45;76.94
59315;BME280;46521;50.160;20.802;2022-12-18T11:08:33;101741.13;;;-2.48;76.10
59315;BME280;46521;50.160;20.802;2022-12-18T11:18:35;101740.48;;;-2.58;76.08
59315;BME280;46521;50.160;20.802;2022-12-18T11:28:49;101736.27;;;-2.64;75.67
59315;BME280;46521;50.160;20.802;2022-12-18T11:38:53;101749.84;;;-2.52;75.72
59315;BME280;46521;50.160;20.802;2022-12-18T11:49:03;101760.20;;;-2.52;76.21
59315;BME280;46521;50.160;20.802;2022-12-18T11:59:51;101770.50;;;-2.93;74.99
59315;BME280;46521;50.160;20.802;2022-12-18T12:20:45;101769.61;;;-2.91;75.48
59315;BME280;46521;50.160;20.802;2022-12-18T12:41:04;101791.83;;;-3.26;75.67
59315;BME280;46521;50.160;20.802;2022-12-18T13:11:43;101826.19;;;-3.17;74.91
59315;BME280;46521;50.160;20.802;2022-12-18T13:22:04;101843.76;;;-3.36;74.53
59315;BME280;46521;50.160;20.802;2022-12-18T13:32:22;101863.89;;;-3.55;74.53
59315;BME280;46521;50.160;20.802;2022-12-18T13:42:31;101872.63;;;-3.64;75.47
59315;BME280;46521;50.160;20.802;2022-12-18T13:52:55;101870.26;;;-3.80;75.00
59315;BME280;46521;50.160;20.802;2022-12-18T14:02:58;101886.69;;;-3.82;75.06
59315;BME280;46521;50.160;20.802;2022-12-18T14:13:07;101869.64;;;-3.97;75.01
59315;BME280;46521;50.160;20.802;2022-12-18T14:23:45;101885.88;;;-3.87;74.58
59315;BME280;46521;50.160;20.802;2022-12-18T14:33:46;101912.59;;;-3.85;75.00
59315;BME280;46521;50.160;20.802;2022-12-18T14:43:50;101896.34;;;-3.95;74.93
59315;BME280;46521;50.160;20.802;2022-12-18T14:53:55;101905.94;;;-4.06;74.67
59315;BME280;46521;50.160;20.802;2022-12-18T15:03:58;101930.44;;;-4.38;74.55
59315;BME280;46521;50.160;20.802;2022-12-18T15:14:21;101932.20;;;-4.42;74.74
59315;BME280;46521;50.160;20.802;2022-12-18T15:24:27;101924.50;;;-4.46;74.30
59315;BME280;46521;50.160;20.802;2022-12-18T15:34:32;101934.69;;;-4.32;74.67
59315;BME280;46521;50.160;20.802;2022-12-18T15:44:35;101940.63;;;-4.24;74.46
59315;BME280;46521;50.160;20.802;2022-12-18T15:54:37;101952.66;;;-4.25;74.13
59315;BME280;46521;50.160;20.802;2022-12-18T16:04:57;101970.75;;;-4.25;74.75
59315;BME280;46521;50.160;20.802;2022-12-18T16:14:59;101978.48;;;-4.23;74.40
59315;BME280;46521;50.160;20.802;2022-12-18T16:25:01;101988.95;;;-4.34;74.13
59315;BME280;46521;50.160;20.802;2022-12-18T16:35:02;101975.18;;;-4.36;74.40
59315;BME280;46521;50.160;20.802;2022-12-18T16:45:06;102001.91;;;-4.37;74.18
59315;BME280;46521;50.160;20.802;2022-12-18T16:55:08;102010.67;;;-4.57;74.08
59315;BME280;46521;50.160;20.802;2022-12-18T17:05:09;102019.36;;;-4.64;74.08
59315;BME280;46521;50.160;20.802;2022-12-18T17:15:11;102022.80;;;-4.65;74.01
59315;BME280;46521;50.160;20.802;2022-12-18T17:25:12;102009.06;;;-4.68;73.82
59315;BME280;46521;50.160;20.802;2022-12-18T17:35:15;102003.97;;;-4.76;74.34
59315;BME280;46521;50.160;20.802;2022-12-18T17:45:17;102025.50;;;-4.82;73.30
59315;BME280;46521;50.160;20.802;2022-12-18T17:55:18;102047.02;;;-4.84;73.70
59315;BME280;46521;50.160;20.802;2022-12-18T18:05:20;102030.72;;;-4.90;73.90
59315;BME280;46521;50.160;20.802;2022-12-18T18:15:21;102015.23;;;-4.90;73.86
59315;BME280;46521;50.160;20.802;2022-12-18T18:25:23;101983.49;;;-5.01;73.83
59315;BME280;46521;50.160;20.802;2022-12-18T18:35:24;101979.31;;;-5.20;73.24
59315;BME280;46521;50.160;20.802;2022-12-18T18:45:26;101987.97;;;-5.28;73.48
59315;BME280;46521;50.160;20.802;2022-12-18T18:55:27;102001.77;;;-5.38;73.45
59315;BME280;46521;50.160;20.802;2022-12-18T19:05:30;102019.84;;;-5.41;73.88
59315;BME280;46521;50.160;20.802;2022-12-18T19:15:32;102025.91;;;-5.47;73.22
59315;BME280;46521;50.160;20.802;2022-12-18T19:25:38;102024.19;;;-5.51;73.93
59315;BME280;46521;50.160;20.802;2022-12-18T19:35:39;102027.64;;;-5.56;73.69
59315;BME280;46521;50.160;20.802;2022-12-18T19:45:41;102038.84;;;-5.57;73.47
59315;BME280;46521;50.160;20.802;2022-12-18T19:55:42;102042.27;;;-5.58;73.13
59315;BME280;46521;50.160;20.802;2022-12-18T20:05:44;102044.86;;;-5.62;73.71
59315;BME280;46521;50.160;20.802;2022-12-18T20:15:45;102056.91;;;-5.64;73.72
59315;BME280;46521;50.160;20.802;2022-12-18T20:25:47;102078.40;;;-5.69;74.16
59315;BME280;46521;50.160;20.802;2022-12-18T20:35:49;102079.28;;;-5.69;74.39
59315;BME280;46521;50.160;20.802;2022-12-18T20:45:50;102090.42;;;-5.64;73.44
59315;BME280;46521;50.160;20.802;2022-12-18T20:55:52;102091.29;;;-5.71;73.54
59315;BME280;46521;50.160;20.802;2022-12-18T21:05:53;102072.41;;;-5.76;73.63
59315;BME280;46521;50.160;20.802;2022-12-18T21:15:55;102071.63;;;-5.96;73.59
59315;BME280;46521;50.160;20.802;2022-12-18T21:26:17;102039.91;;;-6.25;74.13
59315;BME280;46521;50.160;20.802;2022-12-18T21:36:20;102020.17;;;-6.50;73.56
59315;BME280;46521;50.160;20.802;2022-12-18T21:46:21;102022.77;;;-6.74;73.09
59315;BME280;46521;50.160;20.802;2022-12-18T21:56:23;102008.16;;;-6.93;74.08
59315;BME280;46521;50.160;20.802;2022-12-18T22:06:24;101993.56;;;-7.16;73.58
59315;BME280;46521;50.160;20.802;2022-12-18T22:16:26;101996.12;;;-7.25;72.90
59315;BME280;46521;50.160;20.802;2022-12-18T22:26:30;101996.07;;;-7.44;73.88
59315;BME280;46521;50.160;20.802;2022-12-18T22:36:44;101984.03;;;-7.54;74.18
59315;BME280;46521;50.160;20.802;2022-12-18T22:46:48;101974.60;;;-7.61;73.28
59315;BME280;46521;50.160;20.802;2022-12-18T22:56:50;101975.40;;;-7.74;73.19
59315;BME280;46521;50.160;20.802;2022-12-18T23:06:51;101979.63;;;-7.89;73.83
59315;BME280;46521;50.160;20.802;2022-12-18T23:16:53;101966.66;;;-8.13;73.30
59315;BME280;46521;50.160;20.802;2022-12-18T23:26:54;101970.03;;;-8.27;73.06
59315;BME280;46521;50.160;20.802;2022-12-18T23:36:55;101962.30;;;-8.33;73.98
